sensor_id;sensor_type;location;lat;lon;timestamp;P1;durP1;ratioP1;P2;durP2;ratioP2
30249;SDS011;17064;47.974;13.826;2023-09-12T00:04:55;13.50;;;9.18;;
30249;SDS011;17064;47.974;13.826;2023-09-12T00:09:56;11.57;;;8.98;;
30249;SDS011;17064;47.974;13.826;2023-09-12T00:14:57;13.95;;;9.30;;
30249;SDS011;17064;47.974;13.826;2023-09-12T00:19:58;12.00;;;9.25;;
30249;SDS011;17064;47.974;13.826;2023-09-12T00:25:01;12.90;;;9.40;;
30249;SDS011;17064;47.974;13.826;2023-09-12T00:30:02;14.07;;;9.70;;
30249;SDS011;17064;47.974;13.826;2023-09-12T00:35:03;10.55;;;9.10;;
30249;SDS011;17064;47.974;13.826;2023-09-12T00:40:04;15.35;;;9.25;;
30249;SDS011;17064;47.974;13.826;2023-09-12T00:45:05;12.52;;;8.70;;
30249;SDS011;17064;47.974;13.826;2023-09-12T00:50:07;14.65;;;9.63;;
30249;SDS011;17064;47.974;13.826;2023-09-12T00:55:09;13.93;;;10.05;;
30249;SDS011;17064;47.974;13.826;2023-09-12T01:00:11;12.48;;;9.02;;
30249;SDS011;17064;47.974;13.826;2023-09-12T01:05:15;14.63;;;9.13;;
30249;SDS011;17064;47.974;13.826;2023-09-12T01:10:16;11.93;;;9.18;;
30249;SDS011;17064;47.974;13.826;2023-09-12T01:15:17;14.55;;;9.50;;
30249;SDS011;17064;47.974;13.826;2023-09-12T01:20:28;12.75;;;9.05;;
30249;SDS011;17064;47.974;13.826;2023-09-12T01:30:42;13.80;;;8.98;;
30249;SDS011;17064;47.974;13.826;2023-09-12T01:35:48;13.48;;;9.02;;
30249;SDS011;17064;47.974;13.826;2023-09-12T01:40:49;14.40;;;9.93;;
30249;SDS011;17064;47.974;13.826;2023-09-12T01:45:55;13.13;;;9.15;;
30249;SDS011;17064;47.974;13.826;2023-09-12T01:50:57;13.35;;;9.18;;
30249;SDS011;17064;47.974;13.826;2023-09-12T01:55:59;14.25;;;9.23;;
30249;SDS011;17064;47.974;13.826;2023-09-12T02:01:00;12.25;;;9.00;;
30249;SDS011;17064;47.974;13.826;2023-09-12T02:06:01;16.48;;;9.57;;
30249;SDS011;17064;47.974;13.826;2023-09-12T02:11:01;13.18;;;9.85;;
30249;SDS011;17064;47.974;13.826;2023-09-12T02:16:02;13.50;;;9.60;;
30249;SDS011;17064;47.974;13.826;2023-09-12T02:21:03;14.95;;;9.38;;
30249;SDS011;17064;47.974;13.826;2023-09-12T02:26:04;13.80;;;8.90;;
30249;SDS011;17064;47.974;13.826;2023-09-12T02:31:09;10.98;;;8.60;;
30249;SDS011;17064;47.974;13.826;2023-09-12T02:36:11;16.88;;;9.63;;
30249;SDS011;17064;47.974;13.826;2023-09-12T02:41:12;12.73;;;9.75;;
30249;SDS011;17064;47.974;13.826;2023-09-12T02:46:13;13.07;;;9.38;;
30249;SDS011;17064;47.974;13.826;2023-09-12T02:51:13;12.20;;;8.80;;
30249;SDS011;17064;47.974;13.826;2023-09-12T02:56:14;11.43;;;8.65;;
30249;SDS011;17064;47.974;13.826;2023-09-12T03:01:15;12.15;;;8.68;;
30249;SDS011;17064;47.974;13.826;2023-09-12T03:06:19;13.57;;;9.13;;
30249;SDS011;17064;47.974;13.826;2023-09-12T03:11:20;12.85;;;8.57;;
30249;SDS011;17064;47.974;13.826;2023-09-12T03:16:21;13.27;;;9.23;;
30249;SDS011;17064;47.974;13.826;2023-09-12T03:21:24;11.23;;;7.97;;
30249;SDS011;17064;47.974;13.826;2023-09-12T03:26:24;13.02;;;8.63;;
30249;SDS011;17064;47.974;13.826;2023-09-12T03:31:25;13.57;;;9.15;;
30249;SDS011;17064;47.974;13.826;2023-09-12T03:36:26;11.38;;;8.30;;
30249;SDS011;17064;47.974;13.826;2023-09-12T03:41:26;12.27;;;8.90;;
30249;SDS011;17064;47.974;13.826;2023-09-12T03:46:27;14.93;;;8.82;;
30249;SDS011;17064;47.974;13.826;2023-09-12T03:51:28;11.95;;;8.40;;
30249;SDS011;17064;47.974;13.826;2023-09-12T03:56:29;14.45;;;8.98;;
30249;SDS011;17064;47.974;13.826;2023-09-12T04:01:29;17.25;;;10.50;;
30249;SDS011;17064;47.974;13.826;2023-09-12T04:06:30;10.77;;;8.60;;
30249;SDS011;17064;47.974;13.826;2023-09-12T04:11:31;13.38;;;9.55;;
30249;SDS011;17064;47.974;13.826;2023-09-12T04:16:31;16.58;;;9.95;;
30249;SDS011;17064;47.974;13.826;2023-09-12T04:21:33;21.00;;;10.07;;
30249;SDS011;17064;47.974;13.826;2023-09-12T04:26:34;19.65;;;9.82;;
30249;SDS011;17064;47.974;13.826;2023-09-12T04:31:35;16.35;;;9.82;;
30249;SDS011;17064;47.974;13.826;2023-09-12T04:36:35;17.40;;;10.65;;
30249;SDS011;17064;47.974;13.826;2023-09-12T04:41:36;15.65;;;10.15;;
30249;SDS011;17064;47.974;13.826;2023-09-12T04:46:37;20.17;;;9.93;;
30249;SDS011;17064;47.974;13.826;2023-09-12T04:51:38;13.98;;;10.20;;
30249;SDS011;17064;47.974;13.826;2023-09-12T04:56:39;15.63;;;10.60;;
30249;SDS011;17064;47.974;13.826;2023-09-12T05:01:39;16.00;;;10.85;;
30249;SDS011;17064;47.974;13.826;2023-09-12T05:06:40;21.10;;;10.43;;
30249;SDS011;17064;47.974;13.826;2023-09-12T05:11:41;13.90;;;9.30;;
30249;SDS011;17064;47.974;13.826;2023-09-12T05:16:42;16.02;;;10.85;;
30249;SDS011;17064;47.974;13.826;2023-09-12T05:21:42;17.48;;;10.07;;
30249;SDS011;17064;47.974;13.826;2023-09-12T05:26:43;14.90;;;10.00;;
30249;SDS011;17064;47.974;13.826;2023-09-12T05:31:44;13.35;;;9.63;;
30249;SDS011;17064;47.974;13.826;2023-09-12T05:36:44;17.05;;;10.27;;
30249;SDS011;17064;47.974;13.826;2023-09-12T05:41:45;17.90;;;10.48;;
30249;SDS011;17064;47.974;13.826;2023-09-12T05:46:46;16.23;;;10.30;;
30249;SDS011;17064;47.974;13.826;2023-09-12T05:51:47;14.57;;;9.70;;
30249;SDS011;17064;47.974;13.826;2023-09-12T05:56:48;16.63;;;11.10;;
30249;SDS011;17064;47.974;13.826;2023-09-12T06:01:49;16.42;;;10.43;;
30249;SDS011;17064;47.974;13.826;2023-09-12T06:06:49;15.60;;;11.35;;
30249;SDS011;17064;47.974;13.826;2023-09-12T06:11:50;18.35;;;11.25;;
30249;SDS011;17064;47.974;13.826;2023-09-12T06:16:51;19.48;;;10.90;;
30249;SDS011;17064;47.974;13.826;2023-09-12T06:21:52;20.42;;;11.73;;
30249;SDS011;17064;47.974;13.826;2023-09-12T06:26:53;23.38;;;12.02;;
30249;SDS011;17064;47.974;13.826;2023-09-12T06:31:53;18.60;;;11.20;;
30249;SDS011;17064;47.974;13.826;2023-09-12T06:36:56;19.33;;;11.05;;
30249;SDS011;17064;47.974;13.826;2023-09-12T06:41:56;17.60;;;11.20;;
30249;SDS011;17064;47.974;13.826;2023-09-12T06:46:57;21.00;;;11.05;;
30249;SDS011;17064;47.974;13.826;2023-09-12T06:51:58;14.93;;;10.38;;
30249;SDS011;17064;47.974;13.826;2023-09-12T06:56:58;15.43;;;9.60;;
30249;SDS011;17064;47.974;13.826;2023-09-12T07:01:59;16.75;;;9.57;;
30249;SDS011;17064;47.974;13.826;2023-09-12T07:07:00;13.32;;;9.85;;
30249;SDS011;17064;47.974;13.826;2023-09-12T07:12:00;13.38;;;9.00;;
30249;SDS011;17064;47.974;13.826;2023-09-12T07:17:01;12.75;;;8.68;;
30249;SDS011;17064;47.974;13.826;2023-09-12T07:22:02;11.00;;;8.35;;
30249;SDS011;17064;47.974;13.826;2023-09-12T07:27:03;16.80;;;7.32;;
30249;SDS011;17064;47.974;13.826;2023-09-12T07:32:04;11.88;;;8.00;;
30249;SDS011;17064;47.974;13.826;2023-09-12T07:37:05;11.40;;;8.05;;
30249;SDS011;17064;47.974;13.826;2023-09-12T07:42:06;14.63;;;8.52;;
30249;SDS011;17064;47.974;13.826;2023-09-12T07:47:07;11.10;;;7.85;;
30249;SDS011;17064;47.974;13.826;2023-09-12T07:52:09;13.43;;;8.13;;
30249;SDS011;17064;47.974;13.826;2023-09-12T07:57:09;11.02;;;8.43;;
30249;SDS011;17064;47.974;13.826;2023-09-12T08:02:10;10.10;;;7.97;;
30249;SDS011;17064;47.974;13.826;2023-09-12T08:12:13;10.88;;;7.40;;
30249;SDS011;17064;47.974;13.826;2023-09-12T08:17:14;12.25;;;7.55;;
30249;SDS011;17064;47.974;13.826;2023-09-12T08:22:16;14.25;;;8.05;;
30249;SDS011;17064;47.974;13.826;2023-09-12T08:27:16;11.93;;;8.88;;
30249;SDS011;17064;47.974;13.826;2023-09-12T08:32:17;10.80;;;7.30;;
30249;SDS011;17064;47.974;13.826;2023-09-12T08:37:18;9.57;;;6.85;;
30249;SDS011;17064;47.974;13.826;2023-09-12T08:42:18;11.13;;;7.55;;
30249;SDS011;17064;47.974;13.826;2023-09-12T08:47:19;9.73;;;8.25;;
30249;SDS011;17064;47.974;13.826;2023-09-12T08:52:23;10.45;;;7.50;;
30249;SDS011;17064;47.974;13.826;2023-09-12T08:57:24;9.63;;;7.10;;
30249;SDS011;17064;47.974;13.826;2023-09-12T09:02:26;10.75;;;8.13;;
30249;SDS011;17064;47.974;13.826;2023-09-12T09:07:27;13.20;;;7.90;;
30249;SDS011;17064;47.974;13.826;2023-09-12T09:12:29;12.75;;;7.20;;
30249;SDS011;17064;47.974;13.826;2023-09-12T09:17:29;14.13;;;7.80;;
30249;SDS011;17064;47.974;13.826;2023-09-12T09:22:30;10.37;;;7.53;;
30249;SDS011;17064;47.974;13.826;2023-09-12T09:27:34;12.43;;;7.23;;
30249;SDS011;17064;47.974;13.826;2023-09-12T09:32:35;10.80;;;7.25;;
30249;SDS011;17064;47.974;13.826;2023-09-12T09:37:35;61.73;;;12.67;;
30249;SDS011;17064;47.974;13.826;2023-09-12T09:42:37;8.80;;;6.70;;
30249;SDS011;17064;47.974;13.826;2023-09-12T09:52:38;10.20;;;6.93;;
30249;SDS011;17064;47.974;13.826;2023-09-12T09:57:39;9.03;;;6.37;;
30249;SDS011;17064;47.974;13.826;2023-09-12T10:02:40;11.00;;;6.83;;
30249;SDS011;17064;47.974;13.826;2023-09-12T10:07:42;13.63;;;6.60;;
30249;SDS011;17064;47.974;13.826;2023-09-12T10:12:53;8.68;;;6.53;;
30249;SDS011;17064;47.974;13.826;2023-09-12T10:17:58;12.35;;;6.70;;
30249;SDS011;17064;47.974;13.826;2023-09-12T10:28:03;8.20;;;6.70;;
30249;SDS011;17064;47.974;13.826;2023-09-12T10:33:05;8.23;;;6.15;;
30249;SDS011;17064;47.974;13.826;2023-09-12T10:43:08;8.60;;;6.15;;
30249;SDS011;17064;47.974;13.826;2023-09-12T10:48:10;7.65;;;5.95;;
30249;SDS011;17064;47.974;13.826;2023-09-12T10:53:12;9.85;;;6.43;;
30249;SDS011;17064;47.974;13.826;2023-09-12T10:58:14;35.38;;;7.65;;
30249;SDS011;17064;47.974;13.826;2023-09-12T11:08:27;9.25;;;5.63;;
30249;SDS011;17064;47.974;13.826;2023-09-12T11:13:29;8.57;;;5.97;;
30249;SDS011;17064;47.974;13.826;2023-09-12T11:24:15;8.52;;;5.97;;
30249;SDS011;17064;47.974;13.826;2023-09-12T11:29:17;28.60;;;6.82;;
30249;SDS011;17064;47.974;13.826;2023-09-12T11:34:17;15.70;;;7.20;;
30249;SDS011;17064;47.974;13.826;2023-09-12T11:39:22;11.00;;;5.90;;
30249;SDS011;17064;47.974;13.826;2023-09-12T11:44:25;8.02;;;5.85;;
30249;SDS011;17064;47.974;13.826;2023-09-12T11:49:26;7.38;;;5.70;;
30249;SDS011;17064;47.974;13.826;2023-09-12T11:54:29;14.10;;;6.78;;
30249;SDS011;17064;47.974;13.826;2023-09-12T11:59:32;8.18;;;5.93;;
30249;SDS011;17064;47.974;13.826;2023-09-12T12:04:33;9.10;;;6.00;;
30249;SDS011;17064;47.974;13.826;2023-09-12T12:09:34;7.68;;;5.35;;
30249;SDS011;17064;47.974;13.826;2023-09-12T12:14:35;10.07;;;6.32;;
30249;SDS011;17064;47.974;13.826;2023-09-12T12:19:37;8.97;;;6.37;;
30249;SDS011;17064;47.974;13.826;2023-09-12T12:24:45;8.20;;;5.57;;
30249;SDS011;17064;47.974;13.826;2023-09-12T12:29:47;7.15;;;5.18;;
30249;SDS011;17064;47.974;13.826;2023-09-12T12:34:48;9.33;;;6.60;;
30249;SDS011;17064;47.974;13.826;2023-09-12T12:44:56;9.57;;;5.57;;
30249;SDS011;17064;47.974;13.826;2023-09-12T12:49:56;7.85;;;5.63;;
30249;SDS011;17064;47.974;13.826;2023-09-12T12:55:04;8.60;;;5.73;;
30249;SDS011;17064;47.974;13.826;2023-09-12T13:00:12;9.50;;;5.25;;
30249;SDS011;17064;47.974;13.826;2023-09-12T13:05:21;5.90;;;5.30;;
30249;SDS011;17064;47.974;13.826;2023-09-12T13:10:29;6.13;;;5.43;;
30249;SDS011;17064;47.974;13.826;2023-09-12T13:15:30;7.43;;;5.38;;
30249;SDS011;17064;47.974;13.826;2023-09-12T13:20:31;12.50;;;5.83;;
30249;SDS011;17064;47.974;13.826;2023-09-12T13:25:32;5.23;;;4.73;;
30249;SDS011;17064;47.974;13.826;2023-09-12T13:30:32;7.57;;;4.87;;
30249;SDS011;17064;47.974;13.826;2023-09-12T13:35:33;8.90;;;5.53;;
30249;SDS011;17064;47.974;13.826;2023-09-12T13:40:34;11.60;;;5.73;;
30249;SDS011;17064;47.974;13.826;2023-09-12T13:45:38;9.02;;;5.38;;
30249;SDS011;17064;47.974;13.826;2023-09-12T13:50:39;11.27;;;5.53;;
30249;SDS011;17064;47.974;13.826;2023-09-12T13:55:40;10.93;;;5.80;;
30249;SDS011;17064;47.974;13.826;2023-09-12T14:00:40;6.83;;;5.47;;
30249;SDS011;17064;47.974;13.826;2023-09-12T14:05:41;13.17;;;6.63;;
30249;SDS011;17064;47.974;13.826;2023-09-12T14:10:42;11.90;;;5.70;;
30249;SDS011;17064;47.974;13.826;2023-09-12T14:15:43;13.93;;;5.63;;
30249;SDS011;17064;47.974;13.826;2023-09-12T14:20:46;9.25;;;6.38;;
30249;SDS011;17064;47.974;13.826;2023-09-12T14:25:47;8.20;;;5.57;;
30249;SDS011;17064;47.974;13.826;2023-09-12T14:30:48;8.70;;;5.53;;
30249;SDS011;17064;47.974;13.826;2023-09-12T14:35:50;7.05;;;5.57;;
30249;SDS011;17064;47.974;13.826;2023-09-12T14:40:52;8.15;;;6.22;;
30249;SDS011;17064;47.974;13.826;2023-09-12T14:45:54;9.45;;;6.15;;
30249;SDS011;17064;47.974;13.826;2023-09-12T14:50:56;9.33;;;5.23;;
30249;SDS011;17064;47.974;13.826;2023-09-12T14:55:57;10.25;;;6.22;;
30249;SDS011;17064;47.974;13.826;2023-09-12T15:00:59;9.90;;;5.68;;
30249;SDS011;17064;47.974;13.826;2023-09-12T15:06:00;8.85;;;6.55;;
30249;SDS011;17064;47.974;13.826;2023-09-12T15:11:01;8.00;;;6.05;;
30249;SDS011;17064;47.974;13.826;2023-09-12T15:16:03;10.50;;;6.50;;
30249;SDS011;17064;47.974;13.826;2023-09-12T15:26:05;11.77;;;6.35;;
30249;SDS011;17064;47.974;13.826;2023-09-12T15:31:06;10.47;;;6.33;;
30249;SDS011;17064;47.974;13.826;2023-09-12T15:36:07;11.20;;;7.00;;
30249;SDS011;17064;47.974;13.826;2023-09-12T15:41:07;14.37;;;7.00;;
30249;SDS011;17064;47.974;13.826;2023-09-12T15:46:08;14.27;;;7.67;;
30249;SDS011;17064;47.974;13.826;2023-09-12T15:51:09;14.57;;;7.87;;
30249;SDS011;17064;47.974;13.826;2023-09-12T15:56:10;10.10;;;6.87;;
30249;SDS011;17064;47.974;13.826;2023-09-12T16:01:11;9.47;;;6.47;;
30249;SDS011;17064;47.974;13.826;2023-09-12T16:06:12;10.82;;;6.88;;
30249;SDS011;17064;47.974;13.826;2023-09-12T16:11:13;14.53;;;7.07;;
30249;SDS011;17064;47.974;13.826;2023-09-12T16:16:15;12.77;;;7.45;;
30249;SDS011;17064;47.974;13.826;2023-09-12T16:21:16;9.87;;;6.40;;
30249;SDS011;17064;47.974;13.826;2023-09-12T16:26:17;10.67;;;6.73;;
30249;SDS011;17064;47.974;13.826;2023-09-12T16:31:18;13.03;;;6.60;;
30249;SDS011;17064;47.974;13.826;2023-09-12T16:36:19;10.93;;;6.37;;
30249;SDS011;17064;47.974;13.826;2023-09-12T16:41:20;12.43;;;7.37;;
30249;SDS011;17064;47.974;13.826;2023-09-12T16:46:21;11.88;;;7.45;;
30249;SDS011;17064;47.974;13.826;2023-09-12T16:51:23;9.90;;;7.27;;
30249;SDS011;17064;47.974;13.826;2023-09-12T16:56:24;14.53;;;7.93;;
30249;SDS011;17064;47.974;13.826;2023-09-12T17:01:25;11.20;;;7.87;;
30249;SDS011;17064;47.974;13.826;2023-09-12T17:06:26;12.03;;;8.47;;
30249;SDS011;17064;47.974;13.826;2023-09-12T17:11:29;12.82;;;7.78;;
30249;SDS011;17064;47.974;13.826;2023-09-12T17:16:30;11.38;;;8.15;;
30249;SDS011;17064;47.974;13.826;2023-09-12T17:21:32;13.27;;;8.85;;
30249;SDS011;17064;47.974;13.826;2023-09-12T17:26:33;13.48;;;8.25;;
30249;SDS011;17064;47.974;13.826;2023-09-12T17:31:34;11.23;;;7.57;;
30249;SDS011;17064;47.974;13.826;2023-09-12T17:36:35;16.02;;;8.43;;
30249;SDS011;17064;47.974;13.826;2023-09-12T17:41:39;18.45;;;9.63;;
30249;SDS011;17064;47.974;13.826;2023-09-12T17:46:42;14.18;;;9.40;;
30249;SDS011;17064;47.974;13.826;2023-09-12T17:51:42;18.20;;;10.73;;
30249;SDS011;17064;47.974;13.826;2023-09-12T17:56:43;16.67;;;8.70;;
30249;SDS011;17064;47.974;13.826;2023-09-12T18:01:46;15.85;;;9.30;;
30249;SDS011;17064;47.974;13.826;2023-09-12T18:06:47;14.90;;;9.10;;
30249;SDS011;17064;47.974;13.826;2023-09-12T18:11:49;13.88;;;10.60;;
30249;SDS011;17064;47.974;13.826;2023-09-12T18:16:53;14.25;;;9.73;;
30249;SDS011;17064;47.974;13.826;2023-09-12T18:21:54;14.67;;;9.83;;
30249;SDS011;17064;47.974;13.826;2023-09-12T18:26:55;15.77;;;10.00;;
30249;SDS011;17064;47.974;13.826;2023-09-12T18:31:57;16.20;;;9.18;;
30249;SDS011;17064;47.974;13.826;2023-09-12T18:36:58;12.90;;;10.20;;
30249;SDS011;17064;47.974;13.826;2023-09-12T18:42:00;15.63;;;10.20;;
30249;SDS011;17064;47.974;13.826;2023-09-12T18:47:05;11.63;;;9.55;;
30249;SDS011;17064;47.974;13.826;2023-09-12T18:52:06;17.13;;;9.35;;
30249;SDS011;17064;47.974;13.826;2023-09-12T18:57:11;15.50;;;9.75;;
30249;SDS011;17064;47.974;13.826;2023-09-12T19:07:14;13.85;;;9.70;;
30249;SDS011;17064;47.974;13.826;2023-09-12T19:12:18;21.05;;;10.80;;
30249;SDS011;17064;47.974;13.826;2023-09-12T19:17:19;13.45;;;10.23;;
30249;SDS011;17064;47.974;13.826;2023-09-12T19:22:20;14.00;;;9.98;;
30249;SDS011;17064;47.974;13.826;2023-09-12T19:27:23;14.68;;;10.40;;
30249;SDS011;17064;47.974;13.826;2023-09-12T19:32:26;14.65;;;10.65;;
30249;SDS011;17064;47.974;13.826;2023-09-12T19:37:28;16.50;;;10.05;;
30249;SDS011;17064;47.974;13.826;2023-09-12T19:42:29;11.68;;;9.52;;
30249;SDS011;17064;47.974;13.826;2023-09-12T19:47:31;15.27;;;10.40;;
30249;SDS011;17064;47.974;13.826;2023-09-12T19:52:34;15.40;;;10.52;;
30249;SDS011;17064;47.974;13.826;2023-09-12T19:57:37;14.15;;;11.02;;
30249;SDS011;17064;47.974;13.826;2023-09-12T20:02:40;14.25;;;9.48;;
30249;SDS011;17064;47.974;13.826;2023-09-12T20:07:45;13.57;;;9.93;;
30249;SDS011;17064;47.974;13.826;2023-09-12T20:12:52;15.10;;;10.15;;
30249;SDS011;17064;47.974;13.826;2023-09-12T20:18:07;15.48;;;11.43;;
30249;SDS011;17064;47.974;13.826;2023-09-12T20:23:09;15.27;;;10.93;;
30249;SDS011;17064;47.974;13.826;2023-09-12T20:28:10;14.93;;;10.45;;
30249;SDS011;17064;47.974;13.826;2023-09-12T20:33:12;14.70;;;11.27;;
30249;SDS011;17064;47.974;13.826;2023-09-12T20:38:13;15.15;;;11.20;;
30249;SDS011;17064;47.974;13.826;2023-09-12T20:43:14;13.20;;;10.70;;
30249;SDS011;17064;47.974;13.826;2023-09-12T20:48:16;17.42;;;11.77;;
30249;SDS011;17064;47.974;13.826;2023-09-12T20:53:18;15.75;;;10.20;;
30249;SDS011;17064;47.974;13.826;2023-09-12T20:58:19;14.40;;;10.90;;
30249;SDS011;17064;47.974;13.826;2023-09-12T21:03:20;14.80;;;10.43;;
30249;SDS011;17064;47.974;13.826;2023-09-12T21:08:21;16.13;;;11.73;;
30249;SDS011;17064;47.974;13.826;2023-09-12T21:13:21;17.48;;;11.40;;
30249;SDS011;17064;47.974;13.826;2023-09-12T21:18:22;15.93;;;11.32;;
30249;SDS011;17064;47.974;13.826;2023-09-12T21:23:23;22.75;;;12.15;;
30249;SDS011;17064;47.974;13.826;2023-09-12T21:28:23;14.23;;;10.55;;
30249;SDS011;17064;47.974;13.826;2023-09-12T21:33:24;14.55;;;11.35;;
30249;SDS011;17064;47.974;13.826;2023-09-12T21:38:25;15.57;;;10.88;;
30249;SDS011;17064;47.974;13.826;2023-09-12T21:43:26;15.25;;;11.13;;
30249;SDS011;17064;47.974;13.826;2023-09-12T21:48:26;14.75;;;10.75;;
30249;SDS011;17064;47.974;13.826;2023-09-12T21:53:27;15.18;;;10.82;;
30249;SDS011;17064;47.974;13.826;2023-09-12T21:58:28;13.50;;;10.70;;
30249;SDS011;17064;47.974;13.826;2023-09-12T22:03:28;18.98;;;11.68;;
30249;SDS011;17064;47.974;13.826;2023-09-12T22:08:29;14.10;;;10.43;;
30249;SDS011;17064;47.974;13.826;2023-09-12T22:13:30;17.45;;;11.68;;
30249;SDS011;17064;47.974;13.826;2023-09-12T22:18:31;15.68;;;11.50;;
30249;SDS011;17064;47.974;13.826;2023-09-12T22:23:31;16.50;;;11.70;;
30249;SDS011;17064;47.974;13.826;2023-09-12T22:28:32;16.17;;;11.48;;
30249;SDS011;17064;47.974;13.826;2023-09-12T22:33:33;15.57;;;10.52;;
30249;SDS011;17064;47.974;13.826;2023-09-12T22:38:33;17.70;;;11.13;;
30249;SDS011;17064;47.974;13.826;2023-09-12T22:43:34;15.23;;;11.40;;
30249;SDS011;17064;47.974;13.826;2023-09-12T22:48:36;14.83;;;10.70;;
30249;SDS011;17064;47.974;13.826;2023-09-12T22:53:37;18.48;;;11.15;;
30249;SDS011;17064;47.974;13.826;2023-09-12T22:58:38;16.20;;;10.85;;
30249;SDS011;17064;47.974;13.826;2023-09-12T23:03:38;17.75;;;11.18;;
30249;SDS011;17064;47.974;13.826;2023-09-12T23:08:39;14.90;;;10.77;;
30249;SDS011;17064;47.974;13.826;2023-09-12T23:13:40;13.13;;;9.93;;
30249;SDS011;17064;47.974;13.826;2023-09-12T23:18:41;12.63;;;9.95;;
30249;SDS011;17064;47.974;13.826;2023-09-12T23:23:41;14.32;;;10.05;;
30249;SDS011;17064;47.974;13.826;2023-09-12T23:28:42;14.80;;;10.60;;
30249;SDS011;17064;47.974;13.826;2023-09-12T23:33:43;14.75;;;9.75;;
30249;SDS011;17064;47.974;13.826;2023-09-12T23:38:43;14.00;;;10.43;;
30249;SDS011;17064;47.974;13.826;2023-09-12T23:43:44;12.73;;;10.13;;
30249;SDS011;17064;47.974;13.826;2023-09-12T23:48:45;12.88;;;10.40;;
30249;SDS011;17064;47.974;13.826;2023-09-12T23:53:46;14.82;;;10.75;;
30249;SDS011;17064;47.974;13.826;2023-09-12T23:58:46;16.08;;;11.10;;
